Pagrindinis puslapis
METAR-TAF:

METAR-TAF

Oro uostai :

Salinasas, Ekvadoras

platuma: 02-12-18S, ilguma: 080-59-20W, Aukštis: 5 m

Dabartinis oras

Ataskaita buvo paskelbta 30 minutes, ne 13:00 UTC
Vėjas 8 kt iš Vakarų/Pietvakarių
Temperatūra 27°C
Drėgmė 84%
Slėgis 1013 hPa
Matomumas 10 km arba daugiau
Su prošvaistėmis ne aukštis 2000 ft

METAR: SESA 281300Z 25008KT 9999 BKN020 27/24 Q1013 RMK A2992

Laikas: 08:30 (13:30 UTC)


TAF: trūkstamas

Orai ataskaitas ir orų prognozės (METAR, TAF).

turimą stotys yra geltonos ir raudonos taškus žemėlapyje.

Perkelti pele per norėdami pamatyti stoties vardą.

Tada spustelėkite, norėdami matyti oro stebėjimo ir prognozės.

Norėdami pakeisti žemėlapį: spustelėkite ant žalios mygtukų su juodo kryžiaus žemyn,; žalią mygtuką su brūkšneliu, jei norite nutolinti; arba žalių rodyklių gretimoms žemėlapius.


METAR-TAF: